createdAt,value
2018-09-20T00:00:08.739Z,19.85
2018-09-20T00:02:38.069Z,19.79
2018-09-20T00:05:07.450Z,19.79
2018-09-20T00:07:36.817Z,19.77
2018-09-20T00:10:06.955Z,19.80
2018-09-20T00:12:36.364Z,19.78
2018-09-20T00:15:05.815Z,19.75
2018-09-20T00:17:35.154Z,19.76
2018-09-20T00:20:04.591Z,19.76
2018-09-20T00:22:33.910Z,19.69
2018-09-20T00:25:03.251Z,19.63
2018-09-20T00:27:32.585Z,19.57
2018-09-20T00:30:02.251Z,19.51
2018-09-20T00:32:31.706Z,19.57
2018-09-20T00:35:01.032Z,19.60
2018-09-20T00:37:30.344Z,19.59
2018-09-20T00:39:59.773Z,19.57
2018-09-20T00:42:29.082Z,19.65
2018-09-20T00:44:58.443Z,19.53
2018-09-20T00:47:27.750Z,19.45
2018-09-20T00:49:57.308Z,19.46
2018-09-20T00:52:26.652Z,19.39
2018-09-20T00:54:56.114Z,19.29
2018-09-20T00:57:25.906Z,19.25
2018-09-20T00:59:55.456Z,19.22
2018-09-20T01:02:24.781Z,19.17
2018-09-20T01:04:54.100Z,19.14
2018-09-20T01:07:23.414Z,19.03
2018-09-20T01:09:52.839Z,19.04
2018-09-20T01:12:22.276Z,19.03
2018-09-20T01:14:51.699Z,18.90
2018-09-20T01:17:21.616Z,18.82
2018-09-20T01:19:50.932Z,18.71
2018-09-20T01:22:20.322Z,18.65
2018-09-20T01:24:49.704Z,18.64
2018-09-20T01:27:19.022Z,18.72
2018-09-20T01:29:48.420Z,18.66
2018-09-20T01:32:17.812Z,18.66
2018-09-20T01:34:47.315Z,18.69
2018-09-20T01:37:16.663Z,18.67
2018-09-20T01:39:46.069Z,18.62
2018-09-20T01:42:15.385Z,18.62
2018-09-20T01:44:44.726Z,18.58
2018-09-20T01:47:14.232Z,18.55
2018-09-20T01:49:43.565Z,18.53
2018-09-20T01:52:12.895Z,18.47
2018-09-20T01:54:42.226Z,18.46
2018-09-20T01:57:11.650Z,18.46
2018-09-20T01:59:40.993Z,18.37
2018-09-20T02:02:10.357Z,18.40
2018-09-20T02:04:39.693Z,18.44
2018-09-20T02:07:09.028Z,18.36
2018-09-20T02:09:38.459Z,18.35
2018-09-20T02:12:08.191Z,18.32
2018-09-20T02:14:37.535Z,18.24
2018-09-20T02:17:06.911Z,18.27
2018-09-20T02:19:36.230Z,18.31
2018-09-20T02:22:06.059Z,18.23
2018-09-20T02:24:35.393Z,18.20
2018-09-20T02:27:05.317Z,18.17
2018-09-20T02:29:34.632Z,18.11
2018-09-20T02:32:04.039Z,18.12
2018-09-20T02:34:33.420Z,18.05
2018-09-20T02:37:02.739Z,18.03
2018-09-20T02:39:32.064Z,18.06
2018-09-20T02:42:01.424Z,18.06
2018-09-20T02:44:30.742Z,18.03
2018-09-20T02:47:00.070Z,18.04
2018-09-20T02:49:29.527Z,18.01
2018-09-20T02:51:58.869Z,17.95
2018-09-20T02:54:28.212Z,17.94
2018-09-20T02:56:57.572Z,18.01
2018-09-20T02:59:26.948Z,17.97
2018-09-20T03:01:56.275Z,17.91
2018-09-20T03:04:25.612Z,17.91
2018-09-20T03:07:01.191Z,17.86
2018-09-20T03:09:30.563Z,17.84
2018-09-20T03:11:59.887Z,17.82
2018-09-20T03:14:29.519Z,17.80
2018-09-20T03:16:58.841Z,17.81
2018-09-20T03:19:28.263Z,17.82
2018-09-20T03:21:57.604Z,17.82
2018-09-20T03:24:27.006Z,17.69
2018-09-20T03:26:56.355Z,17.75
2018-09-20T03:29:25.856Z,17.70
2018-09-20T03:31:55.209Z,17.67
2018-09-20T03:34:24.533Z,17.62
2018-09-20T03:36:53.872Z,17.57
2018-09-20T03:39:23.212Z,17.61
2018-09-20T03:41:52.547Z,17.56
2018-09-20T03:44:21.959Z,17.57
2018-09-20T03:46:51.296Z,17.54
2018-09-20T03:49:20.632Z,17.58
2018-09-20T03:51:49.987Z,17.55
2018-09-20T03:54:19.296Z,17.51
2018-09-20T03:56:48.664Z,17.52
2018-09-20T03:59:18.583Z,17.48
2018-09-20T04:01:47.938Z,17.43
2018-09-20T04:04:17.267Z,17.41
2018-09-20T04:06:46.623Z,17.48
2018-09-20T04:09:16.009Z,17.37
2018-09-20T04:11:45.394Z,17.33
2018-09-20T04:14:14.733Z,17.34
2018-09-20T04:16:44.116Z,17.39
2018-09-20T04:19:13.515Z,17.34
2018-09-20T04:21:49.786Z,17.28
2018-09-20T04:24:19.118Z,17.32
2018-09-20T04:26:48.520Z,17.29
2018-09-20T04:29:17.878Z,17.29
2018-09-20T04:31:47.279Z,17.28
2018-09-20T04:34:16.584Z,17.22
2018-09-20T04:36:45.914Z,17.18
2018-09-20T04:39:15.303Z,17.17
2018-09-20T04:41:44.659Z,17.13
2018-09-20T04:44:13.994Z,17.13
2018-09-20T04:46:43.401Z,17.14
2018-09-20T04:49:12.769Z,17.16
2018-09-20T04:51:42.104Z,17.17
2018-09-20T04:54:11.496Z,17.09
2018-09-20T04:56:40.809Z,17.14
2018-09-20T04:59:10.244Z,17.11
2018-09-20T05:01:39.617Z,17.17
2018-09-20T05:04:08.951Z,17.23
2018-09-20T05:06:38.271Z,17.16
2018-09-20T05:09:12.340Z,17.19
2018-09-20T05:11:42.258Z,17.15
2018-09-20T05:14:12.016Z,17.21
2018-09-20T05:16:42.084Z,17.20
2018-09-20T05:19:11.500Z,17.17
2018-09-20T05:21:40.927Z,17.20
2018-09-20T05:24:11.088Z,17.29
2018-09-20T05:26:40.518Z,17.28
2018-09-20T05:29:10.024Z,17.24
2018-09-20T05:31:39.428Z,17.30
2018-09-20T05:34:08.794Z,17.25
2018-09-20T05:36:38.136Z,17.26
2018-09-20T05:39:09.318Z,17.24
2018-09-20T05:41:38.784Z,17.27
2018-09-20T05:44:08.639Z,17.29
2018-09-20T05:46:38.109Z,17.39
2018-09-20T05:49:07.612Z,17.39
2018-09-20T05:51:36.963Z,17.38
2018-09-20T05:54:06.548Z,17.39
2018-09-20T05:56:35.867Z,17.36
2018-09-20T05:59:05.623Z,17.36
2018-09-20T06:01:35.218Z,17.34
2018-09-20T06:04:04.588Z,17.36
2018-09-20T06:06:34.057Z,17.50
2018-09-20T06:09:03.545Z,17.55
2018-09-20T06:11:32.937Z,17.58
2018-09-20T06:14:02.288Z,17.64
2018-09-20T06:16:31.744Z,17.80
2018-09-20T06:19:01.500Z,17.88
2018-09-20T06:21:30.819Z,17.92
2018-09-20T06:24:00.163Z,18.03
2018-09-20T06:26:29.710Z,18.20
2018-09-20T06:28:59.101Z,18.34
2018-09-20T06:31:28.485Z,18.69
2018-09-20T06:33:57.827Z,18.91
2018-09-20T06:36:27.204Z,18.83
2018-09-20T06:38:56.653Z,18.84
2018-09-20T06:41:25.959Z,18.83
2018-09-20T06:43:55.326Z,18.88
2018-09-20T06:46:24.638Z,18.86
2018-09-20T06:48:54.022Z,18.81
2018-09-20T06:51:23.407Z,19.07
2018-09-20T06:53:52.746Z,19.34
2018-09-20T06:56:22.058Z,19.54
2018-09-20T06:58:51.436Z,19.97
2018-09-20T07:01:20.771Z,20.06
2018-09-20T07:03:50.092Z,20.32
2018-09-20T07:06:20.198Z,20.64
2018-09-20T07:08:49.567Z,21.28
2018-09-20T07:11:18.976Z,21.61
2018-09-20T07:13:48.673Z,21.66
2018-09-20T07:16:17.966Z,22.19
2018-09-20T07:18:47.446Z,22.61
2018-09-20T07:21:16.771Z,22.97
2018-09-20T07:23:46.123Z,22.93
2018-09-20T07:26:15.510Z,23.29
2018-09-20T07:28:44.856Z,23.75
2018-09-20T07:31:14.211Z,23.62
2018-09-20T07:33:43.551Z,23.34
2018-09-20T07:36:12.963Z,22.85
2018-09-20T07:38:42.298Z,22.99
2018-09-20T07:41:11.927Z,23.42
2018-09-20T07:43:41.382Z,23.82
2018-09-20T07:46:10.661Z,23.92
2018-09-20T07:48:40.131Z,23.56
2018-09-20T07:51:09.529Z,22.78
2018-09-20T07:53:38.858Z,22.76
2018-09-20T07:56:08.188Z,22.58
2018-09-20T07:58:37.494Z,22.84
2018-09-20T08:01:06.842Z,22.76
2018-09-20T08:03:36.173Z,22.54
2018-09-20T08:06:05.513Z,22.56
2018-09-20T08:08:34.955Z,22.51
2018-09-20T08:11:04.291Z,22.48
2018-09-20T08:13:33.615Z,22.25
2018-09-20T08:16:02.983Z,22.36
2018-09-20T08:18:32.295Z,22.31
2018-09-20T08:21:01.618Z,22.65
2018-09-20T08:23:30.961Z,22.86
2018-09-20T08:26:00.466Z,23.09
2018-09-20T08:28:29.868Z,23.66
2018-09-20T08:30:59.211Z,24.15
2018-09-20T08:33:28.547Z,24.54
2018-09-20T08:35:57.981Z,24.67
2018-09-20T08:38:30.353Z,24.44
2018-09-20T08:40:59.693Z,24.21
2018-09-20T08:43:29.088Z,24.47
2018-09-20T08:45:58.403Z,24.57
2018-09-20T08:48:27.764Z,24.40
2018-09-20T08:50:57.319Z,24.82
2018-09-20T08:53:26.676Z,25.36
2018-09-20T08:55:56.186Z,25.96
2018-09-20T08:58:25.683Z,26.14
2018-09-20T09:00:55.067Z,26.44
2018-09-20T09:03:24.432Z,26.77
2018-09-20T09:05:53.800Z,26.62
2018-09-20T09:08:23.235Z,27.06
2018-09-20T09:10:52.615Z,27.57
2018-09-20T09:13:21.958Z,27.52
2018-09-20T09:15:51.391Z,27.12
2018-09-20T09:18:20.730Z,26.80
2018-09-20T09:20:50.075Z,27.24
2018-09-20T09:23:19.446Z,27.29
2018-09-20T09:25:48.779Z,27.29
2018-09-20T09:28:18.131Z,27.61
2018-09-20T09:30:47.489Z,27.26
2018-09-20T09:33:16.935Z,27.75
2018-09-20T09:35:46.287Z,27.00
2018-09-20T09:38:15.628Z,26.99
2018-09-20T09:40:45.042Z,26.86
2018-09-20T09:43:14.405Z,27.58
2018-09-20T09:45:43.749Z,26.91
2018-09-20T09:48:13.185Z,26.82
2018-09-20T09:50:42.605Z,26.52
2018-09-20T09:53:11.989Z,26.41
2018-09-20T09:55:41.366Z,26.27
2018-09-20T09:58:10.778Z,26.67
2018-09-20T10:00:42.131Z,26.46
2018-09-20T10:03:11.694Z,26.31
2018-09-20T10:05:41.064Z,26.57
2018-09-20T10:08:10.433Z,26.58
2018-09-20T10:10:39.839Z,26.51
2018-09-20T10:13:09.270Z,26.32
2018-09-20T10:15:38.976Z,27.14
2018-09-20T10:18:08.312Z,27.43
2018-09-20T10:20:37.647Z,27.15
2018-09-20T10:23:07.230Z,27.65
2018-09-20T10:25:36.767Z,27.67
2018-09-20T10:28:38.202Z,28.00
2018-09-20T10:31:07.547Z,28.34
2018-09-20T10:33:36.863Z,28.02
2018-09-20T10:36:06.192Z,28.18
2018-09-20T10:38:35.596Z,27.80
2018-09-20T10:41:04.935Z,27.95
2018-09-20T10:43:34.570Z,27.95
2018-09-20T10:46:03.957Z,27.98
2018-09-20T10:48:33.576Z,27.65
2018-09-20T10:51:02.904Z,26.97
2018-09-20T10:53:32.295Z,26.57
2018-09-20T10:56:01.879Z,27.10
2018-09-20T10:58:31.255Z,27.64
2018-09-20T11:01:00.602Z,27.43
2018-09-20T11:03:29.942Z,28.08
2018-09-20T11:05:59.288Z,28.67
2018-09-20T11:08:28.834Z,29.08
2018-09-20T11:10:58.344Z,28.39
2018-09-20T11:13:27.656Z,28.18
2018-09-20T11:15:57.113Z,28.99
2018-09-20T11:18:26.517Z,29.21
2018-09-20T11:20:55.831Z,29.18
2018-09-20T11:23:25.308Z,29.15
2018-09-20T11:25:55.054Z,29.24
2018-09-20T11:28:24.475Z,29.46
2018-09-20T11:30:54.000Z,29.58
2018-09-20T11:33:23.391Z,29.86
2018-09-20T11:35:52.755Z,29.60
2018-09-20T11:38:22.077Z,29.47
2018-09-20T11:40:51.520Z,29.27
2018-09-20T11:43:21.007Z,29.43
2018-09-20T11:45:50.523Z,29.44
2018-09-20T11:48:19.841Z,29.07
2018-09-20T11:50:49.369Z,28.72
2018-09-20T11:53:18.783Z,28.87
2018-09-20T11:55:48.088Z,29.07
2018-09-20T11:58:17.488Z,29.26
2018-09-20T12:00:46.791Z,29.63
2018-09-20T12:03:16.117Z,29.91
2018-09-20T12:05:45.495Z,29.81
2018-09-20T12:08:14.846Z,28.99
2018-09-20T12:10:44.176Z,29.01
2018-09-20T12:13:13.600Z,29.08
2018-09-20T12:15:43.088Z,28.80
2018-09-20T12:18:12.495Z,29.13
2018-09-20T12:20:42.023Z,29.29
2018-09-20T12:23:11.457Z,29.33
2018-09-20T12:25:40.781Z,29.50
2018-09-20T12:28:10.125Z,29.69
2018-09-20T12:30:39.451Z,30.02
2018-09-20T12:33:09.026Z,30.22
2018-09-20T12:35:38.470Z,29.99
2018-09-20T12:38:07.802Z,30.45
2018-09-20T12:40:37.157Z,30.21
2018-09-20T12:43:06.580Z,29.70
2018-09-20T12:45:36.021Z,29.64
2018-09-20T12:48:05.444Z,29.59
2018-09-20T12:50:34.758Z,29.72
2018-09-20T12:53:04.180Z,29.52
2018-09-20T12:55:33.991Z,29.32
2018-09-20T12:58:03.343Z,28.91
2018-09-20T13:00:32.646Z,28.60
2018-09-20T13:03:02.016Z,28.30
2018-09-20T13:05:31.349Z,28.52
2018-09-20T13:08:00.679Z,28.76
2018-09-20T13:10:30.103Z,28.93
2018-09-20T13:12:59.476Z,28.53
2018-09-20T13:15:28.759Z,28.84
2018-09-20T13:17:58.105Z,29.03
2018-09-20T13:20:27.507Z,29.06
2018-09-20T13:22:56.814Z,28.90
2018-09-20T13:25:26.307Z,29.25
2018-09-20T13:27:55.711Z,29.21
2018-09-20T13:30:25.084Z,29.47
2018-09-20T13:32:54.419Z,29.16
2018-09-20T13:35:23.856Z,29.28
2018-09-20T13:37:53.340Z,29.58
2018-09-20T13:40:22.955Z,29.52
2018-09-20T13:42:52.286Z,30.04
2018-09-20T13:45:21.677Z,30.05
2018-09-20T13:47:51.034Z,30.07
2018-09-20T13:50:20.477Z,30.16
2018-09-20T13:55:30.391Z,29.66
2018-09-20T13:57:59.864Z,29.88
2018-09-20T14:00:29.192Z,29.60
2018-09-20T14:02:58.551Z,29.55
2018-09-20T14:05:27.950Z,29.59
2018-09-20T14:07:57.475Z,29.44
2018-09-20T14:10:26.956Z,29.50
2018-09-20T14:12:56.319Z,29.50
2018-09-20T14:15:25.678Z,29.58
2018-09-20T14:17:54.999Z,29.22
2018-09-20T14:20:24.348Z,29.07
2018-09-20T14:22:53.683Z,28.78
2018-09-20T14:25:23.072Z,28.67
2018-09-20T14:27:52.583Z,28.93
2018-09-20T14:30:21.983Z,29.01
2018-09-20T14:32:51.500Z,29.23
2018-09-20T14:35:21.130Z,28.93
2018-09-20T14:37:50.487Z,28.90
2018-09-20T14:40:19.819Z,28.64
2018-09-20T14:42:49.159Z,28.67
2018-09-20T14:45:18.632Z,28.56
2018-09-20T14:47:47.964Z,28.35
2018-09-20T14:50:17.458Z,28.16
2018-09-20T14:52:47.292Z,28.12
2018-09-20T14:55:16.679Z,27.78
2018-09-20T14:57:46.041Z,27.80
2018-09-20T15:00:15.549Z,27.84
2018-09-20T15:02:44.879Z,27.75
2018-09-20T15:05:14.279Z,27.62
2018-09-20T15:07:43.666Z,27.60
2018-09-20T15:10:13.471Z,27.48
2018-09-20T15:12:42.988Z,27.45
2018-09-20T15:15:12.565Z,27.44
2018-09-20T15:17:48.243Z,27.45
2018-09-20T15:20:17.611Z,27.37
2018-09-20T15:22:46.948Z,27.35
2018-09-20T15:25:17.063Z,27.28
2018-09-20T15:27:46.453Z,27.22
2018-09-20T15:30:15.931Z,27.18
2018-09-20T15:32:45.510Z,27.18
2018-09-20T15:35:14.877Z,27.16
2018-09-20T15:37:44.214Z,27.13
2018-09-20T15:40:14.505Z,27.05
2018-09-20T15:42:43.916Z,26.99
2018-09-20T15:45:13.259Z,26.98
2018-09-20T15:47:42.638Z,26.94
2018-09-20T15:50:12.002Z,26.95
2018-09-20T15:52:41.378Z,26.83
2018-09-20T15:55:10.833Z,26.76
2018-09-20T15:57:40.205Z,26.71
2018-09-20T16:00:09.610Z,26.71
2018-09-20T16:02:38.985Z,26.71
2018-09-20T16:05:08.450Z,26.64
2018-09-20T16:07:37.904Z,26.66
2018-09-20T16:10:07.836Z,26.59
2018-09-20T16:12:37.235Z,26.55
2018-09-20T16:15:06.693Z,26.51
2018-09-20T16:17:36.146Z,26.45
2018-09-20T16:20:06.405Z,26.45
2018-09-20T16:22:35.739Z,26.40
2018-09-20T16:25:05.747Z,26.39
2018-09-20T16:27:35.265Z,26.32
2018-09-20T16:31:18.927Z,26.26
2018-09-20T16:34:47.218Z,26.20
2018-09-20T16:37:37.022Z,26.09
2018-09-20T16:40:07.635Z,26.08
2018-09-20T16:42:41.410Z,25.96
2018-09-20T16:45:10.839Z,25.89
2018-09-20T16:47:40.199Z,25.82
2018-09-20T16:50:09.538Z,25.79
2018-09-20T16:52:39.319Z,25.71
2018-09-20T16:55:09.445Z,25.61
2018-09-20T16:57:38.774Z,25.55
2018-09-20T17:00:10.510Z,25.45
2018-09-20T17:02:40.638Z,25.44
2018-09-20T17:05:10.856Z,25.38
2018-09-20T17:07:40.219Z,25.26
2018-09-20T17:10:09.635Z,25.20
2018-09-20T17:12:39.019Z,25.12
2018-09-20T17:15:08.556Z,25.06
2018-09-20T17:17:37.739Z,24.97
2018-09-20T17:20:07.186Z,24.85
2018-09-20T17:22:36.561Z,24.77
2018-09-20T17:25:05.990Z,24.71
2018-09-20T17:27:35.597Z,24.63
2018-09-20T17:30:05.208Z,24.52
2018-09-20T17:32:34.558Z,24.43
2018-09-20T17:35:04.865Z,24.35
2018-09-20T17:37:35.789Z,24.27
2018-09-20T17:40:05.531Z,24.17
2018-09-20T17:42:35.919Z,24.06
2018-09-20T17:45:05.687Z,23.98
2018-09-20T17:47:35.259Z,23.95
2018-09-20T17:50:04.702Z,23.95
2018-09-20T17:52:34.595Z,23.92
2018-09-20T17:55:04.592Z,23.92
2018-09-20T17:57:35.448Z,23.96
2018-09-20T18:00:04.962Z,23.92
2018-09-20T18:02:34.322Z,23.89
2018-09-20T18:05:03.693Z,23.86
2018-09-20T18:07:33.115Z,23.92
2018-09-20T18:10:02.578Z,23.93
2018-09-20T18:12:32.001Z,24.02
2018-09-20T18:15:01.981Z,24.00
2018-09-20T18:17:31.538Z,24.03
2018-09-20T18:20:00.906Z,24.09
2018-09-20T18:22:30.312Z,24.17
2018-09-20T18:24:59.852Z,24.24
2018-09-20T18:27:29.846Z,24.17
2018-09-20T18:29:59.348Z,24.19
2018-09-20T18:32:29.652Z,24.16
2018-09-20T18:34:59.771Z,24.20
2018-09-20T18:37:30.978Z,24.18
2018-09-20T18:40:01.498Z,24.11
2018-09-20T18:42:31.092Z,24.11
2018-09-20T18:45:00.995Z,24.03
2018-09-20T18:47:30.588Z,24.01
2018-09-20T18:50:00.464Z,24.00
2018-09-20T18:52:30.084Z,24.05
2018-09-20T18:54:59.480Z,24.00
2018-09-20T18:57:29.185Z,23.96
2018-09-20T18:59:59.401Z,24.04
2018-09-20T19:02:29.131Z,23.99
2018-09-20T19:04:58.625Z,24.09
2018-09-20T19:07:28.071Z,23.99
2018-09-20T19:09:57.627Z,24.00
2018-09-20T19:12:27.145Z,23.84
2018-09-20T19:14:56.934Z,23.86
2018-09-20T19:17:26.383Z,23.80
2018-09-20T19:19:55.790Z,23.74
2018-09-20T19:22:25.273Z,23.82
2018-09-20T19:24:54.689Z,23.70
2018-09-20T19:27:24.211Z,23.76
2018-09-20T19:29:53.646Z,23.68
2018-09-20T19:34:51.904Z,23.58
2018-09-20T19:37:21.597Z,23.52
2018-09-20T19:39:51.059Z,23.55
2018-09-20T19:42:20.667Z,23.47
2018-09-20T19:44:50.406Z,23.47
2018-09-20T19:47:20.840Z,23.40
2018-09-20T19:49:50.405Z,23.35
2018-09-20T19:52:20.063Z,23.38
2018-09-20T19:54:49.587Z,23.32
2018-09-20T19:57:19.034Z,23.39
2018-09-20T19:59:49.324Z,23.38
2018-09-20T20:02:18.793Z,23.44
2018-09-20T20:04:48.469Z,23.38
2018-09-20T20:07:18.044Z,23.45
2018-09-20T20:09:47.618Z,23.44
2018-09-20T20:12:17.023Z,23.43
2018-09-20T20:14:46.584Z,23.47
2018-09-20T20:17:16.087Z,23.50
2018-09-20T20:19:45.658Z,23.57
2018-09-20T20:24:43.636Z,23.59
2018-09-20T20:27:13.117Z,23.61
2018-09-20T20:29:42.797Z,23.54
2018-09-20T20:32:12.360Z,23.54
2018-09-20T20:34:41.864Z,23.46
2018-09-20T20:37:11.211Z,23.55
2018-09-20T20:39:40.649Z,23.55
2018-09-20T20:42:10.072Z,23.48
2018-09-20T20:44:40.160Z,23.53
2018-09-20T20:47:09.580Z,23.49
2018-09-20T20:49:38.933Z,23.58
2018-09-20T20:52:08.711Z,23.45
2018-09-20T20:54:38.154Z,23.38
2018-09-20T20:57:07.676Z,23.32
2018-09-20T20:59:37.279Z,23.37
2018-09-20T21:02:06.695Z,23.29
2018-09-20T21:04:36.459Z,23.32
2018-09-20T21:07:06.440Z,23.27
2018-09-20T21:09:36.194Z,23.21
2018-09-20T21:12:05.616Z,23.22
2018-09-20T21:14:35.285Z,23.20
2018-09-20T21:17:04.809Z,23.23
2018-09-20T21:19:34.282Z,23.14
2018-09-20T21:22:03.779Z,23.15
2018-09-20T21:24:33.328Z,23.16
2018-09-20T21:27:02.731Z,23.10
2018-09-20T21:29:32.234Z,23.12
2018-09-20T21:32:01.704Z,23.08
2018-09-20T21:34:31.184Z,23.05
2018-09-20T21:37:00.582Z,23.02
2018-09-20T21:39:30.154Z,23.06
2018-09-20T21:41:59.510Z,22.98
2018-09-20T21:44:28.896Z,23.01
2018-09-20T21:46:58.299Z,22.99
2018-09-20T21:49:27.799Z,22.92
2018-09-20T21:51:57.250Z,23.04
2018-09-20T21:54:26.699Z,22.92
2018-09-20T21:56:56.085Z,22.91
2018-09-20T21:59:25.604Z,22.84
2018-09-20T22:02:00.039Z,22.84
2018-09-20T22:04:29.517Z,22.75
2018-09-20T22:07:00.168Z,22.76
2018-09-20T22:09:30.716Z,22.69
2018-09-20T22:12:00.068Z,22.68
2018-09-20T22:14:29.446Z,22.73
2018-09-20T22:16:58.855Z,22.64
2018-09-20T22:19:28.495Z,22.53
2018-09-20T22:21:57.827Z,22.52
2018-09-20T22:24:27.432Z,22.47
2018-09-20T22:26:56.799Z,22.31
2018-09-20T22:29:26.120Z,22.29
2018-09-20T22:31:55.551Z,22.21
2018-09-20T22:34:24.911Z,22.11
2018-09-20T22:36:54.452Z,22.01
2018-09-20T22:39:23.837Z,22.10
2018-09-20T22:41:53.444Z,21.98
2018-09-20T22:44:22.825Z,21.93
2018-09-20T22:46:52.203Z,21.95
2018-09-20T22:49:21.656Z,22.01
2018-09-20T22:51:51.114Z,21.92
2018-09-20T22:54:20.515Z,21.93
2018-09-20T22:56:49.934Z,21.95
2018-09-20T22:59:19.577Z,21.92
2018-09-20T23:01:48.961Z,21.89
2018-09-20T23:04:18.427Z,21.95
2018-09-20T23:06:47.775Z,21.95
2018-09-20T23:09:17.099Z,21.92
2018-09-20T23:11:46.430Z,21.84
2018-09-20T23:14:15.796Z,21.93
2018-09-20T23:16:45.135Z,21.86
2018-09-20T23:19:14.603Z,21.86
2018-09-20T23:21:43.935Z,21.80
2018-09-20T23:24:13.409Z,21.79
2018-09-20T23:26:42.936Z,21.81
2018-09-20T23:29:12.625Z,21.83
2018-09-20T23:31:41.957Z,21.82
2018-09-20T23:34:11.338Z,21.80
2018-09-20T23:36:40.745Z,21.78
2018-09-20T23:39:12.386Z,21.85
2018-09-20T23:41:41.875Z,21.79
2018-09-20T23:44:11.308Z,21.79
2018-09-20T23:46:40.635Z,21.74
2018-09-20T23:49:09.990Z,21.68
2018-09-20T23:51:39.322Z,21.67
2018-09-20T23:54:08.861Z,21.66
2018-09-20T23:56:38.223Z,21.62
2018-09-20T23:59:07.628Z,21.60
